sensor_id;sensor_type;location;lat;lon;timestamp;pressure;altitude;pressure_sealevel;temperature;humidity
4836;BME280;66719;51.226;6.902;2023-02-25T00:01:33;99849.06;;;3.74;100.00
4836;BME280;66719;51.226;6.902;2023-02-25T00:03:59;99851.66;;;3.74;100.00
4836;BME280;66719;51.226;6.902;2023-02-25T00:06:26;99857.66;;;3.73;100.00
4836;BME280;66719;51.226;6.902;2023-02-25T00:08:53;99862.88;;;3.74;100.00
4836;BME280;66719;51.226;6.902;2023-02-25T00:11:22;99857.66;;;3.73;100.00
4836;BME280;66719;51.226;6.902;2023-02-25T00:13:49;99850.78;;;3.75;100.00
4836;BME280;66719;51.226;6.902;2023-02-25T00:16:17;99854.25;;;3.74;100.00
4836;BME280;66719;51.226;6.902;2023-02-25T00:18:43;99853.38;;;3.72;100.00
4836;BME280;66719;51.226;6.902;2023-02-25T00:21:14;99847.34;;;3.71;100.00
4836;BME280;66719;51.226;6.902;2023-02-25T00:23:42;99849.91;;;3.73;100.00
4836;BME280;66719;51.226;6.902;2023-02-25T00:26:10;99846.47;;;3.71;100.00
4836;BME280;66719;51.226;6.902;2023-02-25T00:28:37;99849.06;;;3.71;100.00
4836;BME280;66719;51.226;6.902;2023-02-25T00:31:07;99841.31;;;3.67;100.00
4836;BME280;66719;51.226;6.902;2023-02-25T00:33:34;99845.66;;;3.67;100.00
4836;BME280;66719;51.226;6.902;2023-02-25T00:36:05;99841.34;;;3.66;100.00
4836;BME280;66719;51.226;6.902;2023-02-25T00:38:31;99842.19;;;3.66;100.00
4836;BME280;66719;51.226;6.902;2023-02-25T00:41:03;99843.91;;;3.64;100.00
4836;BME280;66719;51.226;6.902;2023-02-25T00:43:32;99837.03;;;3.65;100.00
4836;BME280;66719;51.226;6.902;2023-02-25T00:45:58;99849.09;;;3.64;100.00
4836;BME280;66719;51.226;6.902;2023-02-25T00:48:25;99843.06;;;3.64;100.00
4836;BME280;66719;51.226;6.902;2023-02-25T00:50:51;99836.16;;;3.64;100.00
4836;BME280;66719;51.226;6.902;2023-02-25T00:53:18;99843.91;;;3.64;100.00
4836;BME280;66719;51.226;6.902;2023-02-25T00:55:44;99843.06;;;3.65;100.00
4836;BME280;66719;51.226;6.902;2023-02-25T00:58:11;99845.66;;;3.65;100.00
4836;BME280;66719;51.226;6.902;2023-02-25T01:00:37;99842.19;;;3.66;100.00
4836;BME280;66719;51.226;6.902;2023-02-25T01:03:17;99849.09;;;3.64;100.00
4836;BME280;66719;51.226;6.902;2023-02-25T01:05:43;99838.72;;;3.64;100.00
4836;BME280;66719;51.226;6.902;2023-02-25T01:08:16;99834.44;;;3.63;100.00
4836;BME280;66719;51.226;6.902;2023-02-25T01:10:44;99847.38;;;3.62;100.00
4836;BME280;66719;51.226;6.902;2023-02-25T01:13:11;99856.88;;;3.60;100.00
4836;BME280;66719;51.226;6.902;2023-02-25T01:15:37;99853.44;;;3.59;100.00
4836;BME280;66719;51.226;6.902;2023-02-25T01:18:05;99846.56;;;3.58;100.00
4836;BME280;66719;51.226;6.902;2023-02-25T01:20:32;99849.16;;;3.57;100.00
4836;BME280;66719;51.226;6.902;2023-02-25T01:23:02;99843.13;;;3.56;100.00
4836;BME280;66719;51.226;6.902;2023-02-25T01:25:28;99849.13;;;3.55;100.00
4836;BME280;66719;51.226;6.902;2023-02-25T01:27:56;99852.59;;;3.54;100.00
4836;BME280;66719;51.226;6.902;2023-02-25T01:30:22;99861.22;;;3.55;100.00
4836;BME280;66719;51.226;6.902;2023-02-25T01:32:49;99858.63;;;3.53;100.00
4836;BME280;66719;51.226;6.902;2023-02-25T01:35:16;99859.50;;;3.52;100.00
4836;BME280;66719;51.226;6.902;2023-02-25T01:37:42;99857.78;;;3.51;100.00
4836;BME280;66719;51.226;6.902;2023-02-25T01:40:16;99864.69;;;3.52;100.00
4836;BME280;66719;51.226;6.902;2023-02-25T01:42:44;99860.38;;;3.51;100.00
4836;BME280;66719;51.226;6.902;2023-02-25T01:47:45;99850.03;;;3.50;100.00
4836;BME280;66719;51.226;6.902;2023-02-25T01:50:14;99848.31;;;3.50;100.00
4836;BME280;66719;51.226;6.902;2023-02-25T01:52:41;99852.63;;;3.50;100.00
4836;BME280;66719;51.226;6.902;2023-02-25T01:55:08;99862.13;;;3.49;100.00
4836;BME280;66719;51.226;6.902;2023-02-25T01:57:36;99861.25;;;3.47;100.00
4836;BME280;66719;51.226;6.902;2023-02-25T02:00:05;99863.84;;;3.46;100.00
4836;BME280;66719;51.226;6.902;2023-02-25T02:02:46;99861.25;;;3.44;100.00
4836;BME280;66719;51.226;6.902;2023-02-25T02:05:15;99859.53;;;3.43;100.00
4836;BME280;66719;51.226;6.902;2023-02-25T02:07:42;99858.69;;;3.43;100.00
4836;BME280;66719;51.226;6.902;2023-02-25T02:10:09;99857.81;;;3.42;100.00
4836;BME280;66719;51.226;6.902;2023-02-25T02:12:38;99863.00;;;3.42;100.00
4836;BME280;66719;51.226;6.902;2023-02-25T02:15:12;99855.25;;;3.40;100.00
4836;BME280;66719;51.226;6.902;2023-02-25T02:17:52;99862.16;;;3.40;100.00
4836;BME280;66719;51.226;6.902;2023-02-25T02:20:50;99863.03;;;3.39;100.00
4836;BME280;66719;51.226;6.902;2023-02-25T02:32:04;99861.25;;;3.44;100.00
4836;BME280;66719;51.226;6.902;2023-02-25T02:51:34;99849.16;;;3.46;100.00
4836;BME280;66719;51.226;6.902;2023-02-25T02:54:03;99850.91;;;3.44;100.00
4836;BME280;66719;51.226;6.902;2023-02-25T02:56:33;99854.34;;;3.45;100.00
4836;BME280;66719;51.226;6.902;2023-02-25T02:59:04;99848.31;;;3.44;100.00
4836;BME280;66719;51.226;6.902;2023-02-25T03:01:43;99857.81;;;3.42;100.00
4836;BME280;66719;51.226;6.902;2023-02-25T03:04:14;99857.81;;;3.42;100.00
4836;BME280;66719;51.226;6.902;2023-02-25T03:06:45;99856.09;;;3.41;100.00
4836;BME280;66719;51.226;6.902;2023-02-25T03:09:22;99861.28;;;3.39;100.00
4836;BME280;66719;51.226;6.902;2023-02-25T03:11:49;99858.69;;;3.41;100.00
4836;BME280;66719;51.226;6.902;2023-02-25T03:14:16;99860.44;;;3.40;100.00
4836;BME280;66719;51.226;6.902;2023-02-25T03:16:47;99844.03;;;3.38;100.00
4836;BME280;66719;51.226;6.902;2023-02-25T03:19:30;99856.09;;;3.41;100.00
4836;BME280;66719;51.226;6.902;2023-02-25T03:22:03;99869.91;;;3.40;100.00
4836;BME280;66719;51.226;6.902;2023-02-25T03:24:36;99862.13;;;3.38;100.00
4836;BME280;66719;51.226;6.902;2023-02-25T03:27:28;99864.75;;;3.40;100.00
4836;BME280;66719;51.226;6.902;2023-02-25T03:32:46;99875.94;;;3.42;100.00
4836;BME280;66719;51.226;6.902;2023-02-25T03:35:17;99873.38;;;3.39;100.00
4836;BME280;66719;51.226;6.902;2023-02-25T03:37:48;99888.03;;;3.40;100.00
4836;BME280;66719;51.226;6.902;2023-02-25T03:40:17;99880.25;;;3.40;100.00
4836;BME280;66719;51.226;6.902;2023-02-25T03:42:50;99878.53;;;3.40;100.00
4836;BME280;66719;51.226;6.902;2023-02-25T03:45:19;99884.56;;;3.39;100.00
4836;BME280;66719;51.226;6.902;2023-02-25T03:47:46;99869.91;;;3.40;100.00
4836;BME280;66719;51.226;6.902;2023-02-25T03:50:23;99877.69;;;3.40;100.00
4836;BME280;66719;51.226;6.902;2023-02-25T03:52:51;99877.66;;;3.42;100.00
4836;BME280;66719;51.226;6.902;2023-02-25T03:55:18;99885.41;;;3.43;100.00
4836;BME280;66719;51.226;6.902;2023-02-25T03:57:48;99886.28;;;3.42;100.00
4836;BME280;66719;51.226;6.902;2023-02-25T04:00:28;99884.56;;;3.43;100.00
4836;BME280;66719;51.226;6.902;2023-02-25T04:02:55;99890.59;;;3.43;100.00
4836;BME280;66719;51.226;6.902;2023-02-25T04:05:22;99888.00;;;3.43;100.00
4836;BME280;66719;51.226;6.902;2023-02-25T04:07:54;99891.47;;;3.42;100.00
4836;BME280;66719;51.226;6.902;2023-02-25T04:10:21;99888.88;;;3.42;100.00
4836;BME280;66719;51.226;6.902;2023-02-25T04:12:47;99888.88;;;3.42;100.00
4836;BME280;66719;51.226;6.902;2023-02-25T04:15:17;99900.06;;;3.43;100.00
4836;BME280;66719;51.226;6.902;2023-02-25T04:17:44;99892.31;;;3.43;100.00
4836;BME280;66719;51.226;6.902;2023-02-25T04:20:12;99907.84;;;3.43;100.00
4836;BME280;66719;51.226;6.902;2023-02-25T04:22:39;99904.38;;;3.44;100.00
4836;BME280;66719;51.226;6.902;2023-02-25T04:25:06;99906.13;;;3.40;100.00
4836;BME280;66719;51.226;6.902;2023-02-25T04:27:33;99907.84;;;3.41;100.00
4836;BME280;66719;51.226;6.902;2023-02-25T04:30:00;99919.91;;;3.42;100.00
4836;BME280;66719;51.226;6.902;2023-02-25T04:32:27;99910.44;;;3.41;100.00
4836;BME280;66719;51.226;6.902;2023-02-25T04:34:53;99912.16;;;3.42;100.00
4836;BME280;66719;51.226;6.902;2023-02-25T04:37:20;99912.16;;;3.42;100.00
4836;BME280;66719;51.226;6.902;2023-02-25T04:39:46;99915.59;;;3.43;100.00
4836;BME280;66719;51.226;6.902;2023-02-25T04:42:13;99903.53;;;3.42;100.00
4836;BME280;66719;51.226;6.902;2023-02-25T04:44:39;99908.72;;;3.42;100.00
4836;BME280;66719;51.226;6.902;2023-02-25T04:47:06;99918.19;;;3.43;100.00
4836;BME280;66719;51.226;6.902;2023-02-25T04:49:33;99904.41;;;3.42;100.00
4836;BME280;66719;51.226;6.902;2023-02-25T04:52:11;99906.09;;;3.45;100.00
4836;BME280;66719;51.226;6.902;2023-02-25T04:54:38;99903.53;;;3.42;100.00
4836;BME280;66719;51.226;6.902;2023-02-25T04:57:06;99899.22;;;3.42;100.00
4836;BME280;66719;51.226;6.902;2023-02-25T04:59:32;99906.13;;;3.43;100.00
4836;BME280;66719;51.226;6.902;2023-02-25T05:01:59;99908.69;;;3.43;100.00
4836;BME280;66719;51.226;6.902;2023-02-25T05:04:26;99904.41;;;3.42;100.00
4836;BME280;66719;51.226;6.902;2023-02-25T05:06:52;99907.81;;;3.44;100.00
4836;BME280;66719;51.226;6.902;2023-02-25T05:09:19;99907.81;;;3.44;100.00
4836;BME280;66719;51.226;6.902;2023-02-25T05:11:46;99902.66;;;3.43;100.00
4836;BME280;66719;51.226;6.902;2023-02-25T05:14:13;99894.03;;;3.44;100.00
4836;BME280;66719;51.226;6.902;2023-02-25T05:16:39;99908.69;;;3.43;100.00
4836;BME280;66719;51.226;6.902;2023-02-25T05:19:06;99901.78;;;3.45;100.00
4836;BME280;66719;51.226;6.902;2023-02-25T05:21:32;99900.91;;;3.46;100.00
4836;BME280;66719;51.226;6.902;2023-02-25T05:24:00;99897.47;;;3.44;100.00
4836;BME280;66719;51.226;6.902;2023-02-25T05:26:27;99887.16;;;3.43;100.00
4836;BME280;66719;51.226;6.902;2023-02-25T05:28:55;99902.66;;;3.44;100.00
4836;BME280;66719;51.226;6.902;2023-02-25T05:31:23;99895.75;;;3.43;100.00
4836;BME280;66719;51.226;6.902;2023-02-25T05:33:51;99902.66;;;3.44;100.00
4836;BME280;66719;51.226;6.902;2023-02-25T05:36:18;99905.25;;;3.44;100.00
4836;BME280;66719;51.226;6.902;2023-02-25T05:38:45;99916.47;;;3.43;100.00
4836;BME280;66719;51.226;6.902;2023-02-25T05:41:12;99906.97;;;3.44;100.00
4836;BME280;66719;51.226;6.902;2023-02-25T05:43:40;99912.16;;;3.44;100.00
4836;BME280;66719;51.226;6.902;2023-02-25T05:46:07;99905.25;;;3.43;100.00
4836;BME280;66719;51.226;6.902;2023-02-25T05:48:38;99912.16;;;3.44;100.00
4836;BME280;66719;51.226;6.902;2023-02-25T05:51:15;99904.38;;;3.44;100.00
4836;BME280;66719;51.226;6.902;2023-02-25T05:53:42;99902.66;;;3.43;100.00
4836;BME280;66719;51.226;6.902;2023-02-25T05:56:12;99912.16;;;3.40;100.00
4836;BME280;66719;51.226;6.902;2023-02-25T05:58:39;99918.22;;;3.39;100.00
4836;BME280;66719;51.226;6.902;2023-02-25T06:01:10;99925.09;;;3.39;100.00
4836;BME280;66719;51.226;6.902;2023-02-25T06:03:40;99920.78;;;3.39;100.00
4836;BME280;66719;51.226;6.902;2023-02-25T06:06:07;99924.25;;;3.40;100.00
4836;BME280;66719;51.226;6.902;2023-02-25T06:08:33;99919.94;;;3.40;100.00
4836;BME280;66719;51.226;6.902;2023-02-25T06:11:00;99921.66;;;3.40;100.00
4836;BME280;66719;51.226;6.902;2023-02-25T06:13:27;99917.34;;;3.40;100.00
4836;BME280;66719;51.226;6.902;2023-02-25T06:15:54;99919.06;;;3.42;100.00
4836;BME280;66719;51.226;6.902;2023-02-25T06:18:20;99917.31;;;3.42;100.00
4836;BME280;66719;51.226;6.902;2023-02-25T06:20:47;99914.75;;;3.39;100.00
4836;BME280;66719;51.226;6.902;2023-02-25T06:23:13;99926.81;;;3.40;100.00
4836;BME280;66719;51.226;6.902;2023-02-25T06:25:40;99924.22;;;3.42;100.00
4836;BME280;66719;51.226;6.902;2023-02-25T06:28:06;99922.50;;;3.42;100.00
4836;BME280;66719;51.226;6.902;2023-02-25T06:30:33;99932.84;;;3.42;100.00
4836;BME280;66719;51.226;6.902;2023-02-25T06:32:59;99944.06;;;3.41;100.00
4836;BME280;66719;51.226;6.902;2023-02-25T06:35:26;99944.06;;;3.39;100.00
4836;BME280;66719;51.226;6.902;2023-02-25T06:37:58;99948.38;;;3.40;100.00
4836;BME280;66719;51.226;6.902;2023-02-25T06:40:26;99939.75;;;3.42;100.00
4836;BME280;66719;51.226;6.902;2023-02-25T06:42:53;99940.59;;;3.42;100.00
4836;BME280;66719;51.226;6.902;2023-02-25T06:45:20;99949.25;;;3.39;100.00
4836;BME280;66719;51.226;6.902;2023-02-25T06:47:46;99957.00;;;3.41;100.00
4836;BME280;66719;51.226;6.902;2023-02-25T06:50:13;99960.44;;;3.42;100.00
4836;BME280;66719;51.226;6.902;2023-02-25T06:52:39;99965.63;;;3.43;100.00
4836;BME280;66719;51.226;6.902;2023-02-25T06:55:06;99963.03;;;3.43;100.00
4836;BME280;66719;51.226;6.902;2023-02-25T06:57:34;99965.59;;;3.46;100.00
4836;BME280;66719;51.226;6.902;2023-02-25T07:00:01;99956.13;;;3.44;100.00
4836;BME280;66719;51.226;6.902;2023-02-25T07:02:29;99975.06;;;3.47;100.00
4836;BME280;66719;51.226;6.902;2023-02-25T07:04:55;99958.72;;;3.48;100.00
4836;BME280;66719;51.226;6.902;2023-02-25T07:07:22;99961.28;;;3.50;100.00
4836;BME280;66719;51.226;6.902;2023-02-25T07:09:49;99973.38;;;3.49;100.00
4836;BME280;66719;51.226;6.902;2023-02-25T07:12:15;99976.81;;;3.51;100.00
4836;BME280;66719;51.226;6.902;2023-02-25T07:14:42;99977.66;;;3.53;100.00
4836;BME280;66719;51.226;6.902;2023-02-25T07:17:08;99979.38;;;3.56;100.00
4836;BME280;66719;51.226;6.902;2023-02-25T07:19:35;99983.72;;;3.57;100.00
4836;BME280;66719;51.226;6.902;2023-02-25T07:22:01;99987.97;;;3.62;100.00
4836;BME280;66719;51.226;6.902;2023-02-25T07:24:28;99988.84;;;3.61;100.00
4836;BME280;66719;51.226;6.902;2023-02-25T07:26:55;99981.97;;;3.65;100.00
4836;BME280;66719;51.226;6.902;2023-02-25T07:29:22;99985.41;;;3.65;100.00
4836;BME280;66719;51.226;6.902;2023-02-25T07:31:48;99981.09;;;3.66;100.00
4836;BME280;66719;51.226;6.902;2023-02-25T07:34:15;99981.09;;;3.66;100.00
4836;BME280;66719;51.226;6.902;2023-02-25T07:36:41;99974.19;;;3.63;100.00
4836;BME280;66719;51.226;6.902;2023-02-25T07:39:10;99981.06;;;3.64;100.00
4836;BME280;66719;51.226;6.902;2023-02-25T07:41:38;99975.91;;;3.67;100.00
4836;BME280;66719;51.226;6.902;2023-02-25T07:44:05;99984.53;;;3.69;100.00
4836;BME280;66719;51.226;6.902;2023-02-25T07:46:31;99989.69;;;3.73;100.00
4836;BME280;66719;51.226;6.902;2023-02-25T07:48:58;99990.53;;;3.72;100.00
4836;BME280;66719;51.226;6.902;2023-02-25T07:51:25;99995.72;;;3.73;100.00
4836;BME280;66719;51.226;6.902;2023-02-25T07:53:53;99990.56;;;3.75;100.00
4836;BME280;66719;51.226;6.902;2023-02-25T07:56:22;99995.75;;;3.75;100.00
4836;BME280;66719;51.226;6.902;2023-02-25T07:58:49;99994.00;;;3.75;100.00
4836;BME280;66719;51.226;6.902;2023-02-25T08:03:51;100008.66;;;3.78;100.00
4836;BME280;66719;51.226;6.902;2023-02-25T08:06:18;100000.91;;;3.75;100.00
4836;BME280;66719;51.226;6.902;2023-02-25T08:08:46;100000.06;;;3.74;100.00
4836;BME280;66719;51.226;6.902;2023-02-25T08:11:13;100000.06;;;3.74;100.00
4836;BME280;66719;51.226;6.902;2023-02-25T08:13:40;99998.31;;;3.73;100.00
4836;BME280;66719;51.226;6.902;2023-02-25T08:16:09;100001.78;;;3.74;100.00
4836;BME280;66719;51.226;6.902;2023-02-25T08:18:36;100000.06;;;3.74;100.00
4836;BME280;66719;51.226;6.902;2023-02-25T08:21:03;99999.19;;;3.74;100.00
4836;BME280;66719;51.226;6.902;2023-02-25T08:23:30;100012.13;;;3.74;100.00
4836;BME280;66719;51.226;6.902;2023-02-25T08:25:57;100008.69;;;3.75;100.00
4836;BME280;66719;51.226;6.902;2023-02-25T08:28:25;100006.94;;;3.75;100.00
4836;BME280;66719;51.226;6.902;2023-02-25T08:30:52;100013.84;;;3.78;100.00
4836;BME280;66719;51.226;6.902;2023-02-25T08:33:20;100018.16;;;3.79;100.00
4836;BME280;66719;51.226;6.902;2023-02-25T08:35:47;100025.94;;;3.74;100.00
4836;BME280;66719;51.226;6.902;2023-02-25T08:38:13;100027.66;;;3.71;100.00
4836;BME280;66719;51.226;6.902;2023-02-25T08:40:40;100031.97;;;3.70;100.00
4836;BME280;66719;51.226;6.902;2023-02-25T08:43:08;100030.25;;;3.67;100.00
4836;BME280;66719;51.226;6.902;2023-02-25T08:45:41;100036.28;;;3.63;100.00
4836;BME280;66719;51.226;6.902;2023-02-25T08:48:07;100040.63;;;3.61;100.00
4836;BME280;66719;51.226;6.902;2023-02-25T08:50:35;100049.25;;;3.59;100.00
4836;BME280;66719;51.226;6.902;2023-02-25T08:53:01;100044.94;;;3.58;100.00
4836;BME280;66719;51.226;6.902;2023-02-25T08:55:28;100037.16;;;3.61;100.00
4836;BME280;66719;51.226;6.902;2023-02-25T08:57:54;100042.34;;;3.62;100.00
4836;BME280;66719;51.226;6.902;2023-02-25T09:00:21;100030.25;;;3.64;100.00
4836;BME280;66719;51.226;6.902;2023-02-25T09:02:47;100033.69;;;3.63;100.00
4836;BME280;66719;51.226;6.902;2023-02-25T09:05:14;100027.66;;;3.67;100.00
4836;BME280;66719;51.226;6.902;2023-02-25T09:07:41;100033.69;;;3.77;100.00
4836;BME280;66719;51.226;6.902;2023-02-25T09:10:08;100017.28;;;3.84;100.00
4836;BME280;66719;51.226;6.902;2023-02-25T09:12:35;100025.00;;;3.89;100.00
4836;BME280;66719;51.226;6.902;2023-02-25T09:15:04;100037.94;;;3.96;100.00
4836;BME280;66719;51.226;6.902;2023-02-25T09:17:30;100035.31;;;4.09;100.00
4836;BME280;66719;51.226;6.902;2023-02-25T09:19:57;100041.28;;;4.23;100.00
4836;BME280;66719;51.226;6.902;2023-02-25T09:22:27;100054.25;;;4.28;100.00
4836;BME280;66719;51.226;6.902;2023-02-25T09:24:53;100060.25;;;4.31;100.00
4836;BME280;66719;51.226;6.902;2023-02-25T09:27:20;100055.94;;;4.33;100.00
4836;BME280;66719;51.226;6.902;2023-02-25T09:29:47;100054.22;;;4.29;100.00
4836;BME280;66719;51.226;6.902;2023-02-25T09:32:18;100051.66;;;4.23;100.00
4836;BME280;66719;51.226;6.902;2023-02-25T09:34:46;100055.09;;;4.28;100.00
4836;BME280;66719;51.226;6.902;2023-02-25T09:37:15;100063.72;;;4.35;100.00
4836;BME280;66719;51.226;6.902;2023-02-25T09:39:41;100064.53;;;4.46;100.00
4836;BME280;66719;51.226;6.902;2023-02-25T09:42:19;100063.63;;;4.53;100.00
4836;BME280;66719;51.226;6.902;2023-02-25T09:44:50;100063.59;;;4.56;100.00
4836;BME280;66719;51.226;6.902;2023-02-25T09:47:27;100067.09;;;4.47;100.00
4836;BME280;66719;51.226;6.902;2023-02-25T09:52:30;100075.75;;;4.42;100.00
4836;BME280;66719;51.226;6.902;2023-02-25T09:55:20;100077.47;;;4.49;100.00
4836;BME280;66719;51.226;6.902;2023-02-25T10:03:54;100094.75;;;4.53;100.00
4836;BME280;66719;51.226;6.902;2023-02-25T10:06:31;100099.94;;;4.48;100.00
4836;BME280;66719;51.226;6.902;2023-02-25T10:12:12;100126.84;;;4.09;100.00
4836;BME280;66719;51.226;6.902;2023-02-25T10:25:34;100146.69;;;3.25;100.00
4836;BME280;66719;51.226;6.902;2023-02-25T10:28:05;100166.50;;;3.18;100.00
4836;BME280;66719;51.226;6.902;2023-02-25T10:30:56;100160.44;;;3.08;100.00
4836;BME280;66719;51.226;6.902;2023-02-25T10:33:26;100167.38;;;3.16;100.00
4836;BME280;66719;51.226;6.902;2023-02-25T10:36:04;100174.25;;;3.14;100.00
4836;BME280;66719;51.226;6.902;2023-02-25T10:38:35;100180.25;;;2.96;100.00
4836;BME280;66719;51.226;6.902;2023-02-25T10:41:04;100162.13;;;2.88;100.00
4836;BME280;66719;51.226;6.902;2023-02-25T10:43:33;100164.69;;;2.93;100.00
4836;BME280;66719;51.226;6.902;2023-02-25T10:46:33;100170.78;;;2.96;100.00
4836;BME280;66719;51.226;6.902;2023-02-25T10:49:12;100172.50;;;3.06;100.00
4836;BME280;66719;51.226;6.902;2023-02-25T10:54:33;100181.19;;;3.22;100.00
4836;BME280;66719;51.226;6.902;2023-02-25T10:57:07;100187.19;;;3.18;100.00
4836;BME280;66719;51.226;6.902;2023-02-25T10:59:37;100187.19;;;3.20;100.00
4836;BME280;66719;51.226;6.902;2023-02-25T11:04:46;100183.75;;;3.21;100.00
4836;BME280;66719;51.226;6.902;2023-02-25T11:07:38;100186.31;;;3.18;100.00
4836;BME280;66719;51.226;6.902;2023-02-25T11:12:49;100177.75;;;3.35;100.00
4836;BME280;66719;51.226;6.902;2023-02-25T11:15:34;100164.81;;;3.46;100.00
4836;BME280;66719;51.226;6.902;2023-02-25T11:18:25;100170.88;;;3.60;100.00
4836;BME280;66719;51.226;6.902;2023-02-25T11:20:58;100168.28;;;3.76;100.00
4836;BME280;66719;51.226;6.902;2023-02-25T11:23:45;100161.38;;;4.02;100.00
4836;BME280;66719;51.226;6.902;2023-02-25T11:26:37;100180.34;;;4.04;100.00
4836;BME280;66719;51.226;6.902;2023-02-25T11:29:36;100170.00;;;4.10;100.00
4836;BME280;66719;51.226;6.902;2023-02-25T11:32:18;100174.28;;;4.14;100.00
4836;BME280;66719;51.226;6.902;2023-02-25T11:35:01;100167.38;;;4.16;100.00
4836;BME280;66719;51.226;6.902;2023-02-25T11:37:35;100164.78;;;4.16;100.00
4836;BME280;66719;51.226;6.902;2023-02-25T11:40:29;100167.41;;;4.13;100.00
4836;BME280;66719;51.226;6.902;2023-02-25T11:45:32;100171.63;;;4.42;100.00
4836;BME280;66719;51.226;6.902;2023-02-25T11:48:02;100168.16;;;4.49;100.00
4836;BME280;66719;51.226;6.902;2023-02-25T11:50:49;100173.34;;;4.55;100.00
4836;BME280;66719;51.226;6.902;2023-02-25T11:56:16;100174.22;;;4.48;100.00
4836;BME280;66719;51.226;6.902;2023-02-25T12:13:43;100167.19;;;4.87;100.00
4836;BME280;66719;51.226;6.902;2023-02-25T12:16:34;100176.72;;;4.80;100.00
4836;BME280;66719;51.226;6.902;2023-02-25T12:30:26;100194.09;;;4.49;100.00
4836;BME280;66719;51.226;6.902;2023-02-25T12:33:13;100201.94;;;4.20;100.00
4836;BME280;66719;51.226;6.902;2023-02-25T12:47:47;100206.25;;;4.09;100.00
4836;BME280;66719;51.226;6.902;2023-02-25T12:50:44;100211.41;;;4.07;100.00
4836;BME280;66719;51.226;6.902;2023-02-25T12:53:27;100194.16;;;4.12;100.00
4836;BME280;66719;51.226;6.902;2023-02-25T12:59:09;100200.16;;;4.43;100.00
4836;BME280;66719;51.226;6.902;2023-02-25T13:02:08;100201.84;;;4.61;100.00
4836;BME280;66719;51.226;6.902;2023-02-25T13:04:59;100183.66;;;4.70;100.00
4836;BME280;66719;51.226;6.902;2023-02-25T13:18:31;100205.78;;;5.48;100.00
4836;BME280;66719;51.226;6.902;2023-02-25T13:23:50;100209.44;;;5.13;100.00
4836;BME280;66719;51.226;6.902;2023-02-25T13:26:44;100209.28;;;5.34;100.00
4836;BME280;66719;51.226;6.902;2023-02-25T13:29:34;100215.72;;;6.09;96.66
4836;BME280;66719;51.226;6.902;2023-02-25T13:32:24;100211.00;;;6.49;91.11
4836;BME280;66719;51.226;6.902;2023-02-25T13:43:06;100216.28;;;7.17;70.51
4836;BME280;66719;51.226;6.902;2023-02-25T13:46:13;100217.00;;;7.28;71.57
4836;BME280;66719;51.226;6.902;2023-02-25T13:52:07;100234.03;;;5.90;75.23
4836;BME280;66719;51.226;6.902;2023-02-25T13:54:58;100240.78;;;6.14;77.97
4836;BME280;66719;51.226;6.902;2023-02-25T13:57:43;100240.09;;;5.92;68.99
4836;BME280;66719;51.226;6.902;2023-02-25T14:20:32;100262.53;;;6.03;75.02
4836;BME280;66719;51.226;6.902;2023-02-25T14:28:36;100261.22;;;5.30;74.29
4836;BME280;66719;51.226;6.902;2023-02-25T14:34:08;100283.78;;;5.17;72.60
4836;BME280;66719;51.226;6.902;2023-02-25T14:39:50;100274.94;;;5.58;72.53
4836;BME280;66719;51.226;6.902;2023-02-25T14:42:31;100282.63;;;5.72;67.17
4836;BME280;66719;51.226;6.902;2023-02-25T14:47:55;100286.09;;;5.72;67.68
4836;BME280;66719;51.226;6.902;2023-02-25T14:50:30;100296.59;;;5.57;68.36
4836;BME280;66719;51.226;6.902;2023-02-25T14:53:20;100308.75;;;5.43;67.53
4836;BME280;66719;51.226;6.902;2023-02-25T14:58:37;100302.81;;;5.10;65.64
4836;BME280;66719;51.226;6.902;2023-02-25T15:07:05;100307.91;;;5.36;73.88
4836;BME280;66719;51.226;6.902;2023-02-25T15:17:53;100317.50;;;5.11;70.04
4836;BME280;66719;51.226;6.902;2023-02-25T15:20:39;100310.63;;;5.07;70.20
4836;BME280;66719;51.226;6.902;2023-02-25T15:23:13;100309.75;;;5.02;69.48
4836;BME280;66719;51.226;6.902;2023-02-25T15:25:49;100319.28;;;5.06;65.15
4836;BME280;66719;51.226;6.902;2023-02-25T15:33:43;100321.00;;;5.01;65.45
4836;BME280;66719;51.226;6.902;2023-02-25T15:51:53;100355.59;;;4.86;61.50
4836;BME280;66719;51.226;6.902;2023-02-25T15:59:46;100371.19;;;4.80;59.96
4836;BME280;66719;51.226;6.902;2023-02-25T16:05:00;100375.50;;;4.73;60.99
4836;BME280;66719;51.226;6.902;2023-02-25T16:08:00;100373.81;;;4.69;60.33
4836;BME280;66719;51.226;6.902;2023-02-25T16:10:34;100390.22;;;4.65;61.43
4836;BME280;66719;51.226;6.902;2023-02-25T16:13:14;100383.31;;;4.63;62.61
4836;BME280;66719;51.226;6.902;2023-02-25T16:15:52;100394.53;;;4.63;63.29
4836;BME280;66719;51.226;6.902;2023-02-25T16:18:41;100415.28;;;4.62;62.51
4836;BME280;66719;51.226;6.902;2023-02-25T16:21:20;100406.63;;;4.55;65.04
4836;BME280;66719;51.226;6.902;2023-02-25T16:23:48;100413.53;;;4.50;69.45
4836;BME280;66719;51.226;6.902;2023-02-25T16:31:31;100416.09;;;4.32;68.52
4836;BME280;66719;51.226;6.902;2023-02-25T16:34:04;100414.38;;;4.26;68.87
4836;BME280;66719;51.226;6.902;2023-02-25T16:39:26;100423.00;;;4.17;67.11
4836;BME280;66719;51.226;6.902;2023-02-25T16:41:54;100438.50;;;4.11;69.88
4836;BME280;66719;51.226;6.902;2023-02-25T16:44:25;100438.50;;;4.10;68.11
4836;BME280;66719;51.226;6.902;2023-02-25T16:46:55;100436.75;;;4.07;67.52
4836;BME280;66719;51.226;6.902;2023-02-25T16:49:27;100445.38;;;4.02;65.17
4836;BME280;66719;51.226;6.902;2023-02-25T16:51:56;100454.84;;;4.00;65.78
4836;BME280;66719;51.226;6.902;2023-02-25T16:54:31;100449.69;;;3.93;67.79
4836;BME280;66719;51.226;6.902;2023-02-25T16:57:01;100457.41;;;3.89;70.64
4836;BME280;66719;51.226;6.902;2023-02-25T16:59:34;100466.91;;;3.84;70.35
4836;BME280;66719;51.226;6.902;2023-02-25T17:04:33;100477.19;;;3.72;68.27
4836;BME280;66719;51.226;6.902;2023-02-25T17:09:34;100476.31;;;3.65;75.61
4836;BME280;66719;51.226;6.902;2023-02-25T17:12:02;100477.13;;;3.61;73.35
4836;BME280;66719;51.226;6.902;2023-02-25T17:14:29;100483.16;;;3.63;69.44
4836;BME280;66719;51.226;6.902;2023-02-25T17:16:57;100484.03;;;3.60;72.33
4836;BME280;66719;51.226;6.902;2023-02-25T17:19:24;100481.44;;;3.57;72.34